Time;durP1;ratioP1;P1;durP2;ratioP2;P2;SDS_P1;SDS_P2;PMS_P1;PMS_P2;Temp;Humidity;BMP_temperature;BMP_pressure;BME280_temperature;BME280_humidity;BME280_pressure;Samples;Min_cycle;Max_cycle;Signal;HPM_P1;HPM_P2
2022/10/27 00:01:15;;;;;;;0.43;0.43;;;10.90;99.90;;;;;;5029751;28;20389;-72
2022/10/27 00:03:41;;;;;;;1.70;1.43;;;10.80;99.90;;;;;;5028308;28;20477;-73
2022/10/27 00:06:07;;;;;;;0.73;0.70;;;10.80;99.90;;;;;;5032424;28;20462;-72
2022/10/27 00:08:34;;;;;;;0.60;0.60;;;10.80;99.90;;;;;;5031436;28;20393;-72
2022/10/27 00:11:04;;;;;;;0.70;0.70;;;10.90;99.90;;;;;;5032261;28;20653;-72
2022/10/27 00:13:30;;;;;;;0.40;0.40;;;10.80;99.90;;;;;;5029168;28;20034;-72
2022/10/27 00:16:15;;;;;;;0.50;0.50;;;10.80;99.90;;;;;;5032077;28;20025;-72
2022/10/27 00:18:41;;;;;;;0.40;0.40;;;10.80;99.90;;;;;;5012816;28;20121;-72
2022/10/27 00:21:10;;;;;;;0.70;0.70;;;10.80;99.90;;;;;;5030039;28;20026;-72
2022/10/27 00:23:37;;;;;;;1.05;1.05;;;10.80;99.90;;;;;;5030643;28;20452;-72
2022/10/27 00:26:02;;;;;;;;;;;10.80;99.90;;;;;;5032207;28;20120;-72
2022/10/27 00:28:29;;;;;;;1.10;1.10;;;10.80;99.90;;;;;;5029218;28;20012;-72
2022/10/27 00:31:06;;;;;;;0.75;0.73;;;10.90;99.90;;;;;;5028093;28;20041;-72
2022/10/27 00:33:32;;;;;;;;;;;10.90;99.90;;;;;;5023314;28;20499;-72
2022/10/27 00:36:10;;;;;;;0.60;0.60;;;10.80;99.90;;;;;;5031756;28;20004;-72
2022/10/27 00:38:37;;;;;;;0.40;0.40;;;10.90;99.90;;;;;;5029046;28;20064;-72
2022/10/27 00:41:03;;;;;;;;;;;10.80;99.90;;;;;;5030840;28;20056;-71
2022/10/27 00:43:38;;;;;;;1.58;1.48;;;10.90;99.90;;;;;;5031811;28;19920;-71
2022/10/27 00:46:25;;;;;;;0.60;0.60;;;10.90;99.90;;;;;;5030037;28;20021;-72
2022/10/27 00:48:59;;;;;;;6.28;2.40;;;10.90;99.90;;;;;;5024237;28;20042;-72
2022/10/27 00:51:25;;;;;;;0.63;0.63;;;10.90;99.90;;;;;;5030078;28;20084;-72
2022/10/27 00:53:51;;;;;;;0.30;0.30;;;10.90;99.90;;;;;;5031765;28;20034;-72
2022/10/27 00:56:18;;;;;;;0.40;0.40;;;10.90;99.90;;;;;;5032508;28;20045;-72
2022/10/27 00:58:45;;;;;;;0.45;0.45;;;10.90;99.90;;;;;;5028245;28;20124;-72
2022/10/27 01:01:11;;;;;;;2.28;1.00;;;10.90;99.90;;;;;;5030480;28;20026;-71
2022/10/27 01:03:37;;;;;;;0.88;0.88;;;10.90;99.90;;;;;;5029212;28;20380;-72
2022/10/27 01:06:03;;;;;;;0.97;0.97;;;10.90;99.90;;;;;;5029263;28;20029;-72
2022/10/27 01:08:29;;;;;;;0.67;0.67;;;10.90;99.90;;;;;;5030773;28;20324;-72
2022/10/27 01:10:55;;;;;;;0.93;0.90;;;10.90;99.90;;;;;;5029887;28;20388;-72
2022/10/27 01:13:21;;;;;;;0.40;0.40;;;10.90;99.90;;;;;;5029683;28;20033;-71
2022/10/27 01:16:10;;;;;;;0.40;0.40;;;10.80;99.90;;;;;;5030868;28;20059;-71
2022/10/27 01:19:33;;;;;;;0.82;0.82;;;10.80;99.90;;;;;;5029520;28;20046;-72
2022/10/27 01:22:17;;;;;;;1.40;1.20;;;10.80;99.90;;;;;;5025235;28;20362;-72
2022/10/27 01:24:57;;;;;;;2.13;2.03;;;10.90;99.90;;;;;;5030375;28;20112;-71
2022/10/27 01:27:54;;;;;;;0.35;0.35;;;11.00;99.90;;;;;;5027933;28;20497;-72
2022/10/27 01:30:21;;;;;;;0.50;0.50;;;10.80;99.90;;;;;;5026553;28;20021;-72
2022/10/27 01:33:06;;;;;;;0.95;0.95;;;10.80;99.90;;;;;;5022556;28;20030;-71
2022/10/27 01:35:52;;;;;;;0.40;0.40;;;10.80;99.90;;;;;;5028377;28;20084;-71
2022/10/27 01:38:26;;;;;;;0.63;0.63;;;10.90;99.90;;;;;;5027140;28;20119;-72
2022/10/27 01:41:09;;;;;;;0.52;0.52;;;10.40;99.90;;;;;;5029041;28;20029;-72
2022/10/27 01:43:35;;;;;;;0.35;0.35;;;10.80;99.90;;;;;;5028133;28;20033;-73
2022/10/27 01:46:03;;;;;;;0.60;0.60;;;10.80;99.90;;;;;;5030780;28;20032;-72
2022/10/27 01:48:32;;;;;;;1.20;1.10;;;10.80;99.90;;;;;;5026943;28;20058;-72
2022/10/27 01:50:58;;;;;;;0.40;0.40;;;10.80;99.90;;;;;;5028900;28;20123;-72
2022/10/27 01:53:23;;;;;;;1.77;1.23;;;10.70;99.90;;;;;;5029164;28;20488;-72
2022/10/27 01:56:01;;;;;;;0.60;0.60;;;10.70;99.90;;;;;;5029517;28;20113;-72
2022/10/27 01:58:46;;;;;;;0.40;0.40;;;10.70;99.90;;;;;;5028706;28;20041;-72
2022/10/27 02:01:21;;;;;;;1.17;1.17;;;10.70;99.90;;;;;;5031818;28;20022;-72
2022/10/27 02:03:55;;;;;;;0.50;0.50;;;10.60;99.90;;;;;;5029003;28;20542;-73
2022/10/27 02:06:59;;;;;;;2.65;1.75;;;10.70;99.90;;;;;;5024328;28;21201;-71
2022/10/27 02:09:45;;;;;;;2.15;2.03;;;10.60;99.90;;;;;;5033096;28;20037;-72
2022/10/27 02:12:35;;;;;;;0.35;0.35;;;10.60;99.90;;;;;;5032861;28;20108;-72
2022/10/27 02:15:05;;;;;;;0.30;0.30;;;10.60;99.90;;;;;;5033027;28;20037;-72
2022/10/27 02:17:37;;;;;;;1.60;1.40;;;10.60;99.90;;;;;;5033089;28;20059;-71
2022/10/27 02:20:06;;;;;;;0.32;0.32;;;10.60;99.90;;;;;;5046929;28;20034;-72
2022/10/27 02:22:34;;;;;;;0.40;0.40;;;10.60;99.90;;;;;;5033032;28;20432;-71
2022/10/27 02:25:00;;;;;;;2.00;1.88;;;10.60;99.90;;;;;;5014362;28;20534;-72
2022/10/27 02:27:46;;;;;;;0.43;0.43;;;10.60;99.90;;;;;;5022269;28;20096;-71
2022/10/27 02:30:13;;;;;;;0.30;0.30;;;10.60;99.90;;;;;;5034055;28;20477;-72
2022/10/27 02:32:39;;;;;;;0.47;0.47;;;10.60;99.90;;;;;;5031929;28;20029;-72
2022/10/27 02:35:06;;;;;;;0.60;0.60;;;10.60;99.90;;;;;;5033245;28;20045;-72
2022/10/27 02:37:35;;;;;;;0.80;0.60;;;10.50;99.90;;;;;;5031667;28;20033;-71
2022/10/27 02:40:01;;;;;;;1.27;1.17;;;10.50;99.90;;;;;;5030912;28;20084;-72
2022/10/27 02:42:27;;;;;;;0.70;0.70;;;10.50;99.90;;;;;;5033389;28;20120;-72
2022/10/27 02:44:52;;;;;;;0.50;0.50;;;10.60;99.90;;;;;;5032975;28;20456;-72
2022/10/27 02:47:18;;;;;;;0.30;0.30;;;10.50;99.90;;;;;;5032551;28;20107;-72
2022/10/27 02:49:44;;;;;;;0.50;0.50;;;10.50;99.90;;;;;;5031838;28;20036;-72
2022/10/27 02:52:10;;;;;;;1.43;1.33;;;10.50;99.90;;;;;;5031439;28;20101;-72
2022/10/27 02:54:35;;;;;;;0.65;0.65;;;10.50;99.90;;;;;;5032610;28;20037;-71
2022/10/27 02:57:01;;;;;;;0.97;0.97;;;10.40;99.90;;;;;;5032481;28;20091;-72
2022/10/27 02:59:27;;;;;;;0.60;0.60;;;10.40;99.90;;;;;;5033623;28;20109;-71
2022/10/27 03:01:52;;;;;;;0.50;0.50;;;10.50;99.90;;;;;;5031685;28;20064;-72
2022/10/27 03:04:18;;;;;;;0.77;0.53;;;10.50;99.90;;;;;;5032588;28;20037;-72
2022/10/27 03:06:43;;;;;;;5.33;1.60;;;10.50;99.90;;;;;;5029461;28;20515;-72
2022/10/27 03:09:09;;;;;;;0.80;0.80;;;10.60;99.90;;;;;;5033111;28;20032;-71
2022/10/27 03:11:35;;;;;;;0.97;0.97;;;10.60;99.90;;;;;;5031441;28;20477;-72
2022/10/27 03:14:00;;;;;;;0.50;0.50;;;10.60;99.90;;;;;;5032250;28;20465;-71
2022/10/27 03:16:26;;;;;;;1.40;1.30;;;10.50;99.90;;;;;;5031350;28;20128;-72
2022/10/27 03:18:51;;;;;;;1.03;1.03;;;10.40;99.90;;;;;;5031791;28;20033;-72
2022/10/27 03:21:17;;;;;;;0.40;0.40;;;10.50;99.90;;;;;;5032237;28;20037;-72
2022/10/27 03:23:42;;;;;;;0.77;0.77;;;10.50;99.90;;;;;;5031701;28;20040;-71
2022/10/27 03:26:09;;;;;;;0.47;0.47;;;10.50;99.90;;;;;;5031474;28;20477;-71
2022/10/27 03:28:35;;;;;;;;;;;10.40;99.90;;;;;;5030951;28;20490;-72
2022/10/27 03:31:05;;;;;;;0.70;0.70;;;10.50;99.90;;;;;;5031672;28;20043;-72
2022/10/27 03:33:30;;;;;;;0.65;0.65;;;10.50;99.90;;;;;;5031461;28;20037;-71
2022/10/27 03:35:56;;;;;;;0.60;0.60;;;10.50;99.90;;;;;;5031367;28;20373;-72
2022/10/27 03:38:22;;;;;;;0.50;0.50;;;10.50;99.90;;;;;;5030463;28;20097;-71
2022/10/27 03:40:48;;;;;;;0.43;0.43;;;10.50;99.90;;;;;;5032005;28;20125;-71
2022/10/27 03:43:13;;;;;;;3.50;0.90;;;10.50;99.90;;;;;;5031738;28;20033;-71
2022/10/27 03:45:39;;;;;;;0.57;0.57;;;10.50;99.90;;;;;;5032903;28;20418;-71
2022/10/27 03:48:07;;;;;;;0.43;0.43;;;10.60;99.90;;;;;;5030162;28;20041;-72
2022/10/27 03:50:33;;;;;;;0.30;0.30;;;10.60;99.90;;;;;;5031435;28;20481;-72
2022/10/27 03:52:59;;;;;;;1.00;0.70;;;10.60;99.90;;;;;;5029898;28;20037;-71
2022/10/27 03:55:25;;;;;;;0.43;0.43;;;10.60;99.90;;;;;;5028571;28;20360;-71
2022/10/27 03:57:51;;;;;;;1.40;1.30;;;10.60;99.90;;;;;;5031506;28;20033;-72
2022/10/27 04:00:17;;;;;;;0.65;0.60;;;10.60;99.90;;;;;;5031372;28;20462;-72
2022/10/27 04:02:43;;;;;;;1.13;1.05;;;10.60;99.90;;;;;;5031452;28;20045;-71
2022/10/27 04:05:09;;;;;;;0.83;0.53;;;10.60;99.90;;;;;;5029724;28;20473;-72
2022/10/27 04:07:34;;;;;;;1.53;1.43;;;10.50;99.90;;;;;;5030473;28;20541;-71
2022/10/27 04:10:00;;;;;;;1.40;1.20;;;10.70;99.90;;;;;;5031509;28;20476;-72
2022/10/27 04:12:26;;;;;;;0.87;0.87;;;10.70;99.90;;;;;;5031118;28;20117;-73
2022/10/27 04:14:51;;;;;;;0.67;0.67;;;10.80;99.90;;;;;;5030069;28;20025;-72
2022/10/27 04:17:18;;;;;;;0.67;0.67;;;10.80;99.90;;;;;;5031087;28;20029;-71
2022/10/27 04:19:43;;;;;;;1.15;1.15;;;10.80;99.90;;;;;;5031108;28;20032;-71
2022/10/27 04:22:09;;;;;;;0.50;0.50;;;10.60;99.90;;;;;;5031396;28;20034;-73
2022/10/27 04:24:34;;;;;;;0.87;0.87;;;10.70;99.90;;;;;;5029190;28;20029;-72
2022/10/27 04:27:00;;;;;;;0.37;0.37;;;10.70;99.90;;;;;;5029760;28;20114;-72
2022/10/27 04:29:25;;;;;;;2.90;1.80;;;10.70;99.90;;;;;;5026534;28;20064;-71
2022/10/27 04:31:51;;;;;;;1.10;1.07;;;10.80;99.90;;;;;;5031028;28;20121;-72
2022/10/27 04:34:17;;;;;;;1.63;1.53;;;10.80;99.90;;;;;;5030640;28;20037;-70
2022/10/27 04:36:42;;;;;;;0.87;0.87;;;10.80;99.90;;;;;;5032335;28;20366;-72
2022/10/27 04:39:12;;;;;;;1.03;1.00;;;10.70;99.90;;;;;;5029180;28;20389;-72
2022/10/27 04:41:38;;;;;;;1.00;0.98;;;10.70;99.90;;;;;;5030916;28;20233;-71
2022/10/27 04:44:04;;;;;;;1.33;1.23;;;10.80;99.90;;;;;;5030553;28;20135;-72
2022/10/27 04:46:30;;;;;;;0.73;0.73;;;10.80;99.90;;;;;;5030700;28;20033;-72
2022/10/27 04:48:56;;;;;;;0.67;0.67;;;10.80;99.90;;;;;;5029096;28;20048;-72
2022/10/27 04:51:22;;;;;;;0.65;0.65;;;10.80;99.90;;;;;;5031490;28;20068;-72
2022/10/27 04:53:47;;;;;;;0.67;0.67;;;10.80;99.90;;;;;;5030572;28;20077;-72
2022/10/27 04:56:13;;;;;;;1.37;1.27;;;10.80;99.90;;;;;;5026210;28;20112;-72
2022/10/27 04:58:39;;;;;;;1.63;1.03;;;10.80;99.90;;;;;;5030346;28;20037;-72
2022/10/27 05:01:10;;;;;;;0.70;0.70;;;10.90;99.90;;;;;;5031337;28;20064;-72
2022/10/27 05:03:35;;;;;;;0.63;0.63;;;10.90;99.90;;;;;;5029152;28;20047;-66
2022/10/27 05:06:01;;;;;;;0.80;0.80;;;10.90;99.90;;;;;;5029085;28;20030;-66
2022/10/27 05:08:27;;;;;;;0.70;0.70;;;10.90;99.90;;;;;;5028413;28;20128;-66
2022/10/27 05:10:52;;;;;;;0.97;0.97;;;10.90;99.90;;;;;;5030949;28;20369;-65
2022/10/27 05:13:18;;;;;;;0.63;0.63;;;10.90;99.90;;;;;;5028395;28;21450;-65
2022/10/27 05:15:45;;;;;;;1.03;1.03;;;10.90;99.90;;;;;;5029978;28;20025;-66
2022/10/27 05:18:10;;;;;;;;;;;10.90;99.90;;;;;;5030646;28;20112;-66
2022/10/27 05:20:36;;;;;;;0.60;0.60;;;10.90;99.90;;;;;;5030809;28;20019;-65
2022/10/27 05:23:02;;;;;;;1.00;1.00;;;10.90;99.90;;;;;;5029290;28;20095;-66
2022/10/27 05:25:28;;;;;;;1.43;0.77;;;10.90;99.90;;;;;;5027565;28;20037;-65
2022/10/27 05:28:00;;;;;;;0.70;0.70;;;10.90;99.90;;;;;;5028919;28;20113;-65
2022/10/27 05:30:26;;;;;;;0.93;0.90;;;10.90;99.90;;;;;;5028304;28;20044;-65
2022/10/27 05:32:51;;;;;;;1.47;1.37;;;10.90;99.90;;;;;;5030046;28;20033;-65
2022/10/27 05:35:17;;;;;;;1.60;1.13;;;10.90;99.90;;;;;;5028501;28;20028;-66
2022/10/27 05:37:45;;;;;;;1.00;0.97;;;10.80;99.90;;;;;;5027441;28;20091;-66
2022/10/27 05:40:10;;;;;;;1.17;0.60;;;10.80;99.90;;;;;;5028282;28;20033;-65
2022/10/27 05:42:36;;;;;;;0.70;0.70;;;10.80;99.90;;;;;;5028778;28;20152;-65
2022/10/27 05:45:02;;;;;;;1.37;1.27;;;10.80;99.90;;;;;;5029962;28;20456;-66
2022/10/27 05:47:27;;;;;;;1.30;1.20;;;10.80;99.90;;;;;;5028979;28;20110;-65
2022/10/27 05:49:53;;;;;;;0.30;0.30;;;10.80;99.90;;;;;;5028458;28;20057;-65
2022/10/27 05:52:18;;;;;;;0.77;0.60;;;10.80;99.90;;;;;;5029608;28;20458;-66
2022/10/27 05:54:44;;;;;;;1.43;1.33;;;10.80;99.90;;;;;;5027591;28;20026;-65
2022/10/27 05:57:09;;;;;;;0.57;0.57;;;10.80;99.90;;;;;;5029937;28;20025;-66
2022/10/27 05:59:35;;;;;;;0.50;0.50;;;10.80;99.90;;;;;;5027248;28;20129;-65
2022/10/27 06:02:01;;;;;;;0.37;0.37;;;10.80;99.90;;;;;;5028671;28;20109;-65
2022/10/27 06:04:26;;;;;;;0.30;0.30;;;10.80;99.90;;;;;;5030559;28;20034;-65
2022/10/27 06:06:52;;;;;;;1.53;1.43;;;10.70;99.90;;;;;;5028979;28;20029;-66
2022/10/27 06:09:18;;;;;;;0.30;0.30;;;10.70;99.90;;;;;;5029100;28;20029;-66
2022/10/27 06:11:43;;;;;;;4.17;1.67;;;10.80;99.90;;;;;;5029305;28;20397;-66
2022/10/27 06:14:09;;;;;;;0.90;0.90;;;10.80;99.90;;;;;;5027970;28;20033;-65
2022/10/27 06:16:35;;;;;;;1.50;1.13;;;10.80;99.90;;;;;;5030182;28;20050;-66
2022/10/27 06:19:00;;;;;;;1.87;1.73;;;10.80;99.90;;;;;;5029438;28;20112;-66
2022/10/27 06:21:26;;;;;;;0.40;0.40;;;10.80;99.90;;;;;;5027586;28;20168;-66
2022/10/27 06:23:51;;;;;;;0.87;0.87;;;10.80;99.90;;;;;;5029500;28;20052;-64
2022/10/27 06:26:17;;;;;;;0.87;0.87;;;10.80;99.90;;;;;;5024903;28;20026;-66
2022/10/27 06:28:43;;;;;;;1.20;1.13;;;10.80;99.90;;;;;;5025564;28;20052;-65
2022/10/27 06:31:08;;;;;;;0.77;0.77;;;10.80;99.90;;;;;;5028070;28;20385;-65
2022/10/27 06:33:34;;;;;;;0.93;0.93;;;10.80;99.90;;;;;;5028312;28;20037;-65
2022/10/27 06:35:59;;;;;;;2.30;0.70;;;10.80;99.90;;;;;;5030405;28;20037;-66
2022/10/27 06:38:25;;;;;;;0.83;0.83;;;10.80;99.90;;;;;;5028915;28;20477;-65
2022/10/27 06:40:50;;;;;;;0.80;0.80;;;10.80;99.90;;;;;;5027879;28;20520;-66
2022/10/27 06:43:16;;;;;;;1.80;0.80;;;10.80;99.90;;;;;;5028559;28;20037;-65
2022/10/27 06:45:45;;;;;;;1.13;0.93;;;10.80;99.90;;;;;;5031671;28;20460;-66
2022/10/27 06:48:11;;;;;;;0.80;0.80;;;10.80;99.90;;;;;;5032538;28;20477;-65
2022/10/27 06:50:36;;;;;;;0.30;0.30;;;10.80;99.90;;;;;;5033058;28;20025;-65
2022/10/27 06:53:02;;;;;;;0.40;0.40;;;10.70;99.90;;;;;;5038356;28;20418;-66
2022/10/27 06:55:28;;;;;;;0.60;0.60;;;10.80;99.90;;;;;;5035055;28;20468;-65
2022/10/27 06:57:54;;;;;;;0.67;0.67;;;10.70;99.90;;;;;;5021521;28;20078;-66
2022/10/27 07:00:20;;;;;;;2.67;0.83;;;10.80;99.90;;;;;;5032099;28;20392;-65
2022/10/27 07:02:46;;;;;;;0.30;0.30;;;10.80;99.90;;;;;;5029523;28;20030;-65
2022/10/27 07:05:12;;;;;;;0.50;0.50;;;10.80;99.90;;;;;;5032167;28;20040;-65
2022/10/27 07:07:37;;;;;;;1.20;1.13;;;10.80;99.90;;;;;;5029760;28;20423;-65
2022/10/27 07:10:05;;;;;;;0.40;0.40;;;10.80;99.90;;;;;;5032171;28;20398;-66
2022/10/27 07:12:31;;;;;;;0.45;0.43;;;10.90;99.90;;;;;;5031745;28;20033;-66
2022/10/27 07:14:56;;;;;;;1.40;1.30;;;10.90;99.90;;;;;;5033123;28;20087;-66
2022/10/27 07:17:22;;;;;;;0.70;0.70;;;10.90;99.90;;;;;;5030198;28;20033;-65
2022/10/27 07:19:48;;;;;;;1.63;1.00;;;10.90;99.90;;;;;;5033216;28;20052;-66
2022/10/27 07:22:13;;;;;;;0.30;0.30;;;10.90;99.90;;;;;;5031242;28;20469;-65
2022/10/27 07:24:39;;;;;;;0.40;0.40;;;10.90;99.90;;;;;;5030869;28;20469;-65
2022/10/27 07:27:04;;;;;;;0.87;0.87;;;11.10;99.90;;;;;;5031542;28;20041;-66
2022/10/27 07:29:30;;;;;;;0.40;0.40;;;11.10;99.90;;;;;;5031930;28;20159;-65
2022/10/27 07:31:57;;;;;;;2.77;0.97;;;11.10;99.90;;;;;;5031323;28;20033;-66
2022/10/27 07:34:22;;;;;;;;;;;11.10;99.90;;;;;;5030605;28;20048;-65
2022/10/27 07:36:48;;;;;;;0.88;0.88;;;11.10;99.90;;;;;;5032035;28;19917;-65
2022/10/27 07:39:13;;;;;;;2.70;1.17;;;11.80;99.90;;;;;;5032396;28;20106;-66
2022/10/27 07:41:39;;;;;;;0.67;0.67;;;11.20;99.90;;;;;;5031706;28;20065;-64
2022/10/27 07:44:04;;;;;;;1.30;1.03;;;11.10;99.90;;;;;;5031129;28;20385;-64
2022/10/27 07:46:30;;;;;;;0.87;0.87;;;11.10;99.90;;;;;;5030672;28;20401;-65
2022/10/27 07:48:56;;;;;;;1.87;1.70;;;11.10;99.90;;;;;;5032087;28;20041;-65
2022/10/27 07:51:22;;;;;;;0.90;0.90;;;11.20;99.90;;;;;;5031342;28;20580;-66
2022/10/27 07:53:49;;;;;;;0.97;0.97;;;11.20;99.90;;;;;;5029446;28;20029;-65
2022/10/27 07:56:18;;;;;;;1.10;1.00;;;11.20;99.90;;;;;;5032080;28;20041;-65
2022/10/27 07:58:46;;;;;;;1.60;1.50;;;11.30;99.90;;;;;;5031280;28;20029;-65
2022/10/27 08:01:12;;;;;;;0.57;0.57;;;11.30;99.90;;;;;;5030304;28;20389;-66
2022/10/27 08:03:37;;;;;;;0.97;0.97;;;11.40;99.90;;;;;;5030486;28;20029;-65
2022/10/27 08:06:03;;;;;;;0.37;0.37;;;11.50;99.90;;;;;;5030603;28;20065;-66
2022/10/27 08:08:30;;;;;;;0.50;0.50;;;11.60;99.90;;;;;;5025718;28;20357;-65
2022/10/27 08:10:56;;;;;;;0.90;0.90;;;11.70;99.90;;;;;;5029703;28;20116;-65
2022/10/27 08:13:21;;;;;;;1.67;1.27;;;11.70;99.90;;;;;;5030205;28;20458;-66
2022/10/27 08:15:47;;;;;;;1.20;1.10;;;11.80;99.90;;;;;;5030148;28;20065;-65
2022/10/27 08:18:13;;;;;;;0.40;0.40;;;11.80;99.90;;;;;;5029711;28;20094;-66
2022/10/27 08:20:43;;;;;;;1.40;1.30;;;11.80;99.90;;;;;;5029630;28;20051;-66
2022/10/27 08:23:14;;;;;;;0.85;0.85;;;11.80;99.90;;;;;;5029146;28;20033;-66
2022/10/27 08:25:40;;;;;;;1.40;1.30;;;11.70;99.90;;;;;;5026096;28;20120;-66
2022/10/27 08:28:08;;;;;;;0.30;0.30;;;11.80;99.90;;;;;;5027214;28;20049;-66
2022/10/27 08:30:33;;;;;;;0.32;0.32;;;11.90;99.90;;;;;;5020725;28;20041;-66
2022/10/27 08:33:01;;;;;;;0.60;0.60;;;11.80;99.90;;;;;;5018312;28;20114;-66
2022/10/27 08:35:28;;;;;;;0.77;0.73;;;11.80;99.90;;;;;;5025703;28;20084;-65
2022/10/27 08:37:58;;;;;;;0.68;0.68;;;11.90;99.90;;;;;;5019627;28;20113;-65
2022/10/27 08:40:24;;;;;;;0.52;0.52;;;11.90;99.90;;;;;;5013920;28;20085;-65
2022/10/27 08:43:19;;;;;;;0.30;0.30;;;11.90;99.90;;;;;;5020799;28;20079;-65
2022/10/27 08:45:52;;;;;;;0.40;0.40;;;11.90;99.90;;;;;;5029351;28;20034;-65
2022/10/27 08:48:24;;;;;;;0.35;0.35;;;12.00;99.90;;;;;;5028061;28;20381;-66
2022/10/27 08:50:51;;;;;;;0.43;0.38;;;12.10;99.90;;;;;;5018958;28;20042;-66
2022/10/27 08:53:26;;;;;;;0.95;0.95;;;12.10;99.90;;;;;;5030711;28;20091;-66
2022/10/27 08:55:57;;;;;;;0.50;0.50;;;12.10;99.90;;;;;;5027935;28;20044;-66
2022/10/27 08:58:37;;;;;;;1.77;1.15;;;12.10;99.90;;;;;;5028229;28;20022;-65
2022/10/27 09:01:03;;;;;;;5.32;3.03;;;12.10;99.90;;;;;;5030244;28;20040;-65
2022/10/27 09:03:44;;;;;;;1.13;1.10;;;12.10;99.90;;;;;;5029914;28;20033;-65
2022/10/27 09:06:18;;;;;;;1.48;0.93;;;12.10;99.90;;;;;;5028369;28;21046;-65
2022/10/27 09:09:04;;;;;;;2.58;2.35;;;12.00;99.90;;;;;;5018716;28;20029;-65
2022/10/27 09:11:40;;;;;;;0.68;0.68;;;12.10;99.90;;;;;;5010413;28;20042;-66
2022/10/27 09:14:24;;;;;;;0.52;0.52;;;12.10;99.90;;;;;;5017722;28;20033;-65
2022/10/27 09:16:58;;;;;;;0.77;0.77;;;12.20;99.90;;;;;;5010632;28;20041;-67
2022/10/27 09:19:34;;;;;;;0.60;0.60;;;12.20;99.90;;;;;;5016766;28;20045;-65
2022/10/27 09:22:03;;;;;;;1.45;0.95;;;12.30;99.90;;;;;;5030164;28;20037;-66
2022/10/27 09:24:33;;;;;;;0.98;0.95;;;12.30;99.90;;;;;;5030801;28;20572;-65
2022/10/27 09:27:01;;;;;;;0.77;0.77;;;12.30;99.90;;;;;;5019807;28;20100;-64
2022/10/27 09:29:29;;;;;;;0.93;0.75;;;12.40;99.90;;;;;;5030205;28;20033;-67
2022/10/27 09:31:57;;;;;;;0.47;0.47;;;12.40;99.90;;;;;;5029934;28;20040;-65
2022/10/27 09:34:25;;;;;;;0.30;0.30;;;12.30;99.90;;;;;;5028934;28;20029;-66
2022/10/27 09:36:51;;;;;;;0.40;0.40;;;12.40;99.90;;;;;;5027266;28;20072;-66
2022/10/27 09:39:17;;;;;;;0.90;0.90;;;12.40;99.90;;;;;;5027047;28;20044;-66
2022/10/27 09:41:43;;;;;;;0.50;0.50;;;12.40;99.90;;;;;;5029101;28;20452;-65
2022/10/27 09:44:16;;;;;;;1.90;1.80;;;12.50;99.90;;;;;;5024617;28;20029;-65
2022/10/27 09:46:43;;;;;;;0.75;0.75;;;12.40;99.90;;;;;;5029840;28;20030;-64
2022/10/27 09:49:09;;;;;;;;;;;12.50;99.90;;;;;;5026882;28;20137;-66
2022/10/27 09:51:54;;;;;;;0.45;0.45;;;12.50;99.90;;;;;;5016324;28;20000;-65
2022/10/27 09:54:35;;;;;;;0.57;0.57;;;12.40;99.90;;;;;;5027508;28;20026;-65
2022/10/27 09:57:11;;;;;;;0.50;0.50;;;12.30;99.90;;;;;;5024365;28;20028;-66
2022/10/27 09:59:38;;;;;;;0.85;0.85;;;12.30;99.90;;;;;;5023515;28;20034;-65
2022/10/27 10:02:19;;;;;;;0.50;0.50;;;12.40;99.90;;;;;;5023338;28;20030;-65
2022/10/27 10:04:46;;;;;;;0.52;0.52;;;12.50;99.90;;;;;;5027777;28;20196;-65
2022/10/27 10:07:28;;;;;;;1.08;1.05;;;12.60;99.90;;;;;;5028174;28;20084;-66
2022/10/27 10:10:24;;;;;;;1.65;1.33;;;12.70;99.90;;;;;;5029269;28;20037;-64
2022/10/27 10:13:09;;;;;;;0.60;0.60;;;12.80;99.90;;;;;;5015713;28;20033;-66
2022/10/27 10:15:44;;;;;;;0.95;0.95;;;12.90;99.90;;;;;;5029877;28;20026;-66
2022/10/27 10:18:27;;;;;;;0.75;0.75;;;13.00;99.90;;;;;;5028471;28;20117;-66
2022/10/27 10:21:15;;;;;;;0.85;0.85;;;13.00;99.90;;;;;;5028894;28;20164;-65
2022/10/27 10:23:47;;;;;;;0.50;0.50;;;13.10;99.90;;;;;;5030986;28;20021;-65
2022/10/27 10:26:25;;;;;;;0.40;0.40;;;13.10;99.90;;;;;;5030837;28;20053;-65
2022/10/27 10:28:54;;;;;;;1.52;1.42;;;13.20;99.90;;;;;;5022920;28;20088;-66
2022/10/27 10:31:27;;;;;;;0.88;0.88;;;13.20;99.90;;;;;;5032205;28;20064;-65
2022/10/27 10:34:07;;;;;;;0.95;0.95;;;13.10;99.90;;;;;;5031114;28;20061;-65
2022/10/27 10:36:38;;;;;;;0.73;0.73;;;13.10;99.90;;;;;;5033358;28;20123;-66
2022/10/27 10:39:25;;;;;;;2.20;0.73;;;13.20;99.90;;;;;;5032676;28;20030;-65
2022/10/27 10:42:09;;;;;;;0.30;0.30;;;13.10;99.90;;;;;;5030066;28;20026;-65
2022/10/27 10:44:35;;;;;;;0.68;0.68;;;13.10;99.90;;;;;;5032153;28;20109;-66
2022/10/27 10:47:02;;;;;;;0.45;0.45;;;13.10;99.90;;;;;;5031224;28;20030;-64
2022/10/27 10:49:29;;;;;;;0.77;0.77;;;13.10;99.90;;;;;;5033587;28;20045;-65
2022/10/27 10:52:17;;;;;;;0.73;0.73;;;13.10;99.90;;;;;;5031371;28;20248;-65
2022/10/27 10:54:44;;;;;;;0.95;0.93;;;13.10;99.90;;;;;;5033598;28;20034;-66
2022/10/27 10:57:33;;;;;;;0.30;0.30;;;13.10;99.90;;;;;;5029844;28;20424;-66
2022/10/27 11:00:00;;;;;;;1.67;0.80;;;13.20;99.90;;;;;;5023419;28;20396;-67
2022/10/27 11:02:28;;;;;;;0.40;0.40;;;13.20;99.90;;;;;;5025810;28;20358;-66
2022/10/27 11:05:09;;;;;;;0.30;0.30;;;13.20;99.90;;;;;;5025698;28;20042;-65
2022/10/27 11:07:35;;;;;;;0.50;0.50;;;13.30;99.90;;;;;;5028081;28;20112;-65
2022/10/27 11:10:14;;;;;;;0.83;0.83;;;13.30;99.90;;;;;;5031916;28;20112;-66
2022/10/27 11:12:59;;;;;;;0.50;0.50;;;13.30;99.90;;;;;;5031653;28;20383;-65
2022/10/27 11:15:39;;;;;;;0.75;0.75;;;13.40;99.90;;;;;;5030497;28;20072;-65
2022/10/27 11:18:07;;;;;;;0.30;0.30;;;13.50;99.90;;;;;;5029075;28;20037;-66
2022/10/27 11:20:36;;;;;;;1.15;1.05;;;13.80;99.90;;;;;;5031272;28;20107;-64
2022/10/27 11:23:13;;;;;;;1.17;1.13;;;13.70;99.90;;;;;;5031842;28;20101;-65
2022/10/27 11:25:38;;;;;;;0.40;0.40;;;13.80;99.90;;;;;;5027614;28;20241;-65
2022/10/27 11:28:20;;;;;;;1.47;1.37;;;13.70;99.90;;;;;;5028329;28;20549;-66
2022/10/27 11:31:10;;;;;;;0.40;0.40;;;13.70;99.90;;;;;;5023307;28;20037;-65
2022/10/27 11:33:44;;;;;;;0.40;0.40;;;13.60;99.90;;;;;;5025785;28;20029;-67
2022/10/27 11:36:22;;;;;;;0.50;0.50;;;12.40;99.90;;;;;;5022310;28;20112;-67
2022/10/27 11:39:05;;;;;;;0.73;0.73;;;13.60;99.90;;;;;;5029995;28;20048;-66
2022/10/27 11:41:30;;;;;;;0.60;0.60;;;13.60;99.90;;;;;;5019647;28;20030;-66
2022/10/27 11:44:06;;;;;;;0.43;0.43;;;13.60;99.90;;;;;;5031087;28;20442;-66
2022/10/27 11:46:50;;;;;;;0.60;0.60;;;13.60;99.90;;;;;;5031803;28;20032;-66
2022/10/27 11:49:26;;;;;;;1.42;1.33;;;13.60;99.90;;;;;;5029471;28;20061;-64
2022/10/27 11:52:17;;;;;;;0.40;0.40;;;13.60;99.90;;;;;;5029893;28;20370;-65
2022/10/27 11:54:42;;;;;;;1.58;1.48;;;13.60;99.90;;;;;;5029971;28;20377;-64
2022/10/27 11:57:17;;;;;;;2.37;2.17;;;13.60;99.90;;;;;;5026023;28;20108;-65
2022/10/27 12:00:05;;;;;;;0.50;0.50;;;13.50;99.90;;;;;;5028962;28;20038;-65
2022/10/27 12:02:46;;;;;;;0.73;0.73;;;13.50;99.90;;;;;;5026260;28;20037;-65
2022/10/27 12:05:26;;;;;;;0.45;0.45;;;13.40;99.90;;;;;;5030615;28;20108;-67
2022/10/27 12:08:13;;;;;;;1.42;1.33;;;13.50;99.90;;;;;;5028241;28;20041;-65
2022/10/27 12:11:02;;;;;;;0.50;0.50;;;13.50;99.90;;;;;;5028729;28;20489;-64
2022/10/27 12:13:31;;;;;;;1.52;1.42;;;13.50;99.90;;;;;;5028781;28;20034;-66
2022/10/27 12:16:01;;;;;;;0.30;0.30;;;13.50;99.90;;;;;;5029790;28;20029;-65
2022/10/27 12:18:38;;;;;;;0.52;0.52;;;13.40;99.90;;;;;;5029150;28;20025;-66
2022/10/27 12:21:15;;;;;;;0.90;0.90;;;13.50;99.90;;;;;;5029663;28;20499;-66
2022/10/27 12:23:53;;;;;;;0.50;0.50;;;13.50;99.90;;;;;;5028694;28;20041;-65
2022/10/27 12:26:34;;;;;;;0.80;0.80;;;13.50;99.90;;;;;;5029093;28;20049;-65
2022/10/27 12:29:01;;;;;;;0.30;0.30;;;13.50;99.90;;;;;;5030990;28;20033;-65
2022/10/27 12:31:31;;;;;;;0.52;0.52;;;13.40;99.90;;;;;;5030637;28;20073;-65
2022/10/27 12:34:00;;;;;;;0.30;0.30;;;13.40;99.90;;;;;;5030606;28;20059;-65
2022/10/27 12:36:41;;;;;;;0.63;0.50;;;13.30;99.90;;;;;;5030340;28;20037;-64
2022/10/27 12:39:29;;;;;;;0.95;0.90;;;13.30;99.90;;;;;;5030062;28;20091;-65
2022/10/27 12:42:16;;;;;;;1.17;1.13;;;13.20;99.90;;;;;;5022121;28;20029;-66
2022/10/27 12:44:57;;;;;;;0.30;0.30;;;13.30;99.90;;;;;;5029434;28;20026;-65
2022/10/27 12:47:35;;;;;;;28.92;2.35;;;13.30;99.90;;;;;;5029349;28;20092;-68
2022/10/27 12:50:22;;;;;;;1.17;1.15;;;13.30;99.90;;;;;;5030581;28;20037;-66
2022/10/27 12:53:28;;;;;;;0.30;0.30;;;13.30;99.90;;;;;;5030115;28;20034;-65
2022/10/27 12:56:18;;;;;;;3.13;1.25;;;13.30;99.90;;;;;;5011117;28;20033;-66
2022/10/27 12:58:58;;;;;;;0.30;0.30;;;13.30;99.90;;;;;;5028646;28;20042;-65
2022/10/27 13:01:43;;;;;;;0.60;0.60;;;13.30;99.90;;;;;;5026913;28;20518;-66
2022/10/27 13:04:42;;;;;;;0.60;0.60;;;13.20;99.90;;;;;;5030033;28;20405;-67
2022/10/27 13:07:31;;;;;;;0.32;0.32;;;13.20;99.90;;;;;;5029888;28;20025;-66